Aérodrome :
LOGIN :

S'inscrire | Disclaimer

   EN    FR    IT 

 










Légende :    VFR   VFR Marginal   IFR   IFR Intensif   IFR Très Intensif
Visi : 
Plafond : 
>= 8 km
>= 3000ft
5 à 8 km
1000 à 3000 ft
1500m à 5 km
500 à 1000 ft
800 à 1500m
200 à 500 ft
< 800m
< 200 ft
Symboles :   Orages  Brouillard  Fortes neiges  Fortes précipitations  Vent > 20 kt
SIGMETs :   Divers  Orages  Givrage  Turbulence  Onde Orograph.  Cendres Volcan.







- Altitude de l'aérodrome : 202 ft
- Code IATA : LGW
- Voir les cartes d'approche


EGKK - London Gatwick

DERNIER METAR :
  • 192320Z 21010KT 160V250 9999 SCT012 13/12 Q0999

METARs EXPIRÉS :
  • 192250Z 20010G22KT 9999 -RA SCT010 BKN045 14/13 Q0999
  • 192220Z 18014KT 140V220 7000 -RADZ FEW006 BKN009 14/13 Q0999 RERA REDZ
  • 192150Z 17012KT 140V220 7000 -RA SCT008 BKN012 14/13 Q0999 RERA
  • 192120Z 17010KT 130V210 9000 -RA FEW007 SCT010 BKN020 14/13 Q1000 RERA
  • 192050Z 17011G22KT 9000 RA SCT020 SCT030 14/13 Q1000

TAF AMD TAF EGKK
Valide du 19 à 20h jusqu'au 21 à 00h UTC


192036Z 1920/2024 17010KT 9999 SCT025
TEMPO 1920/1923 7000 SHRA BKN010
PROB30
TEMPO 1921/1923 19015G25KT 4000 +SHRA BKN009
BECMG 2003/2006 25012KT
TEMPO 2005/2011 6000 RA BKN008
PROB40
TEMPO 2006/2013 27015G25KT
Pas de NOTAMs connus pour ce terrain.
2 SIGMETs publiés pour la FIR London (EGTT) :
 
Turbulence forte
EGTT SIGMET 04 VALID 192330/200330 EGRR
EGTT LONDON FIR SEV TURB FCST WI N5000 W00015 - N5000 W00200 - N4928 W00500 - N5032 W00600 - N5040 E00128 - N5000 W00015 SFC/FL060 MOV E 15KT WKN=
Turbulence forte
EGTT SIGMET 03 VALID 192020/192330 EGRR
EGTT LONDON FIR SEV TURB FCST WI N5149 W00608 - N5024 W00401 - N5034 W00229 - N5000 W00200 - N4919 W00538 - N5053 W00720 - N5149 W00608 SFC/FL060 MOV E 20KT NC=



MET'MAP, la Météo Aéronautique d'un coup d'oeil ! - Copyright ORBIFLY Décembre 2007 - Disclaimer

ORBIFLY MET'MAP TEAM :

Programmation & Développement : Alexandra Zaïnal
Conception & Développement : Baudouin d'Aumeries
Co-Programmation & Développement : Marc-Olivier Méhu
Soutien technique & logistique : Manuel Goepfert

Contact : metmap@orbifly.com




SOURCES & CREDITS :

   NOAA